createdAt,value
2022-12-14T00:00:34.993Z,8.53
2022-12-14T00:03:03.441Z,7.50
2022-12-14T00:05:33.251Z,8.17
2022-12-14T00:08:02.063Z,7.77
2022-12-14T00:10:30.804Z,8.57
2022-12-14T00:13:10.082Z,8.63
2022-12-14T00:15:38.860Z,6.87
2022-12-14T00:18:07.582Z,7.77
2022-12-14T00:20:37.467Z,8.10
2022-12-14T00:23:05.856Z,7.57
2022-12-14T00:25:34.527Z,7.90
2022-12-14T00:28:02.895Z,8.07
2022-12-14T00:30:31.236Z,7.30
2022-12-14T00:32:59.559Z,7.27
2022-12-14T00:35:27.939Z,8.33
2022-12-14T00:37:57.609Z,7.17
2022-12-14T00:40:26.005Z,7.70
2022-12-14T00:42:54.836Z,7.77
2022-12-14T00:45:23.150Z,7.03
2022-12-14T00:47:51.475Z,7.27
2022-12-14T00:50:20.188Z,7.60
2022-12-14T00:52:48.489Z,7.37
2022-12-14T00:55:18.382Z,7.47
2022-12-14T00:57:46.713Z,6.80
2022-12-14T01:00:15.847Z,8.10
2022-12-14T01:02:44.390Z,7.63
2022-12-14T01:05:12.821Z,7.10
2022-12-14T01:07:41.360Z,7.50
2022-12-14T01:10:10.476Z,6.87
2022-12-14T01:12:40.598Z,7.10
2022-12-14T01:15:09.794Z,8.37
2022-12-14T01:17:38.175Z,7.07
2022-12-14T01:20:07.798Z,7.20
2022-12-14T01:22:36.150Z,7.53
2022-12-14T01:25:05.696Z,7.10
2022-12-14T01:27:34.794Z,7.20
2022-12-14T01:30:04.928Z,7.60
2022-12-14T01:32:33.340Z,7.13
2022-12-14T01:35:01.720Z,7.17
2022-12-14T01:37:30.251Z,7.23
2022-12-14T01:39:58.555Z,7.67
2022-12-14T01:42:26.932Z,7.40
2022-12-14T01:44:58.330Z,7.10
2022-12-14T01:47:39.203Z,6.40
2022-12-14T01:50:13.887Z,7.10
2022-12-14T01:52:45.108Z,7.13
2022-12-14T01:55:18.379Z,7.40
2022-12-14T01:57:50.425Z,6.23
2022-12-14T02:00:18.838Z,6.83
2022-12-14T02:02:52.968Z,6.70
2022-12-14T02:05:23.604Z,7.73
2022-12-14T02:07:55.800Z,6.60
2022-12-14T02:10:26.211Z,7.10
2022-12-14T02:13:00.448Z,7.30
2022-12-14T02:15:29.343Z,6.40
2022-12-14T02:17:59.440Z,7.20
2022-12-14T02:20:35.191Z,7.47
2022-12-14T02:23:43.028Z,6.27
2022-12-14T02:26:53.977Z,6.77
2022-12-14T02:29:56.263Z,6.83
2022-12-14T02:32:50.467Z,7.07
2022-12-14T02:35:28.064Z,7.47
2022-12-14T02:38:08.905Z,6.50
2022-12-14T02:40:42.237Z,6.80
2022-12-14T02:43:23.777Z,6.37
2022-12-14T02:46:01.071Z,6.80
2022-12-14T02:48:37.447Z,6.20
2022-12-14T02:51:13.824Z,7.33
2022-12-14T02:53:48.865Z,6.90
2022-12-14T02:56:23.553Z,7.47
2022-12-14T02:58:53.790Z,7.27
2022-12-14T03:01:27.185Z,6.77
2022-12-14T03:03:55.883Z,7.60
2022-12-14T03:06:27.004Z,7.97
2022-12-14T03:08:59.607Z,7.10
2022-12-14T03:11:32.683Z,7.30
2022-12-14T03:14:07.871Z,7.00
2022-12-14T03:16:43.361Z,6.93
2022-12-14T03:19:17.040Z,7.27
2022-12-14T03:21:48.661Z,7.73
2022-12-14T03:24:22.183Z,7.70
2022-12-14T03:26:55.835Z,7.67
2022-12-14T03:29:29.000Z,8.20
2022-12-14T03:32:02.044Z,7.73
2022-12-14T03:34:37.152Z,7.30
2022-12-14T03:37:11.904Z,7.57
2022-12-14T03:39:43.453Z,6.87
2022-12-14T03:42:19.764Z,7.80
2022-12-14T03:44:58.429Z,6.60
2022-12-14T03:47:47.151Z,7.27
2022-12-14T03:50:19.723Z,7.07
2022-12-14T03:52:56.140Z,7.43
2022-12-14T03:55:30.749Z,7.07
2022-12-14T03:58:15.665Z,7.97
2022-12-14T04:00:50.921Z,8.60
2022-12-14T04:03:30.139Z,7.40
2022-12-14T04:06:04.560Z,7.30
2022-12-14T04:08:39.704Z,7.43
2022-12-14T04:11:41.055Z,7.60
2022-12-14T04:14:32.140Z,7.63
2022-12-14T04:17:21.166Z,7.73
2022-12-14T04:19:55.040Z,8.03
2022-12-14T04:22:27.835Z,7.60
2022-12-14T04:25:17.747Z,7.63
2022-12-14T04:27:50.611Z,7.40
2022-12-14T04:30:18.351Z,7.77
2022-12-14T04:32:51.663Z,8.37
2022-12-14T04:35:27.331Z,8.33
2022-12-14T04:38:00.840Z,8.63
2022-12-14T04:40:33.933Z,7.73
2022-12-14T04:43:07.072Z,7.53
2022-12-14T04:45:41.705Z,7.37
2022-12-14T04:48:19.379Z,7.73
2022-12-14T04:50:54.634Z,8.10
2022-12-14T04:53:27.070Z,7.60
2022-12-14T04:56:05.306Z,8.03
2022-12-14T04:58:37.706Z,8.27
2022-12-14T05:01:21.055Z,7.67
2022-12-14T05:03:54.775Z,8.33
2022-12-14T05:06:31.960Z,8.37
2022-12-14T05:09:14.984Z,8.33
2022-12-14T05:11:54.254Z,7.97
2022-12-14T05:14:34.669Z,8.17
2022-12-14T05:17:08.751Z,8.77
2022-12-14T05:19:38.781Z,8.10
2022-12-14T05:22:09.634Z,8.70
2022-12-14T05:24:38.032Z,9.27
2022-12-14T05:27:06.932Z,8.00
2022-12-14T05:29:35.709Z,8.47
2022-12-14T05:32:04.566Z,8.03
2022-12-14T05:34:33.000Z,10.33
2022-12-14T05:37:01.362Z,8.60
2022-12-14T05:39:31.116Z,8.03
2022-12-14T05:41:59.504Z,8.20
2022-12-14T05:44:27.823Z,8.70
2022-12-14T05:46:56.249Z,7.63
2022-12-14T05:49:25.255Z,8.30
2022-12-14T05:51:53.619Z,8.20
2022-12-14T05:54:21.969Z,8.90
2022-12-14T05:56:51.608Z,8.17
2022-12-14T05:59:20.061Z,8.90
2022-12-14T06:01:51.100Z,9.20
2022-12-14T06:04:20.186Z,8.77
2022-12-14T06:06:48.804Z,7.83
2022-12-14T06:09:17.737Z,9.90
2022-12-14T06:11:47.177Z,9.63
2022-12-14T06:14:17.430Z,8.80
2022-12-14T06:16:47.256Z,15.40
2022-12-14T06:19:16.311Z,9.87
2022-12-14T06:21:45.069Z,9.10
2022-12-14T06:24:14.487Z,9.20
2022-12-14T06:26:43.079Z,8.53
2022-12-14T06:29:17.881Z,8.80
2022-12-14T06:31:49.175Z,9.07
2022-12-14T06:34:22.207Z,8.57
2022-12-14T06:36:53.233Z,8.53
2022-12-14T06:39:21.582Z,8.97
2022-12-14T06:41:51.464Z,8.73
2022-12-14T06:44:21.330Z,8.87
2022-12-14T06:46:49.817Z,9.13
2022-12-14T06:49:18.572Z,8.47
2022-12-14T06:51:47.491Z,9.13
2022-12-14T06:54:16.748Z,8.17
2022-12-14T06:56:46.291Z,9.20
2022-12-14T06:59:15.902Z,8.33
2022-12-14T07:01:50.049Z,9.10
2022-12-14T07:04:21.516Z,8.63
2022-12-14T07:06:50.185Z,8.60
2022-12-14T07:09:19.446Z,9.00
2022-12-14T07:11:50.959Z,9.10
2022-12-14T07:14:19.275Z,8.83
2022-12-14T07:16:49.322Z,8.97
2022-12-14T07:19:18.665Z,9.07
2022-12-14T07:21:47.008Z,9.43
2022-12-14T07:24:15.410Z,8.70
2022-12-14T07:26:43.832Z,8.63
2022-12-14T07:29:14.640Z,10.27
2022-12-14T07:31:42.971Z,9.80
2022-12-14T07:34:14.586Z,10.37
2022-12-14T07:36:43.823Z,10.83
2022-12-14T07:39:14.361Z,9.93
2022-12-14T07:41:42.887Z,10.67
2022-12-14T07:44:11.683Z,10.60
2022-12-14T07:46:41.167Z,9.37
2022-12-14T07:49:09.773Z,9.77
2022-12-14T07:51:42.084Z,11.17
2022-12-14T07:54:12.761Z,10.60
2022-12-14T07:56:43.329Z,10.07
2022-12-14T07:59:14.887Z,11.17
2022-12-14T08:01:44.167Z,10.57
2022-12-14T08:04:14.839Z,11.47
2022-12-14T08:06:44.598Z,11.13
2022-12-14T08:09:13.014Z,10.33
2022-12-14T08:11:41.737Z,10.30
2022-12-14T08:14:17.001Z,11.00
2022-12-14T08:16:46.063Z,11.70
2022-12-14T08:19:14.900Z,10.60
2022-12-14T08:21:46.356Z,12.97
2022-12-14T08:24:16.806Z,12.60
2022-12-14T08:26:49.157Z,15.40
2022-12-14T08:29:18.870Z,17.40
2022-12-14T08:31:47.949Z,11.37
2022-12-14T08:34:22.050Z,11.43
2022-12-14T08:36:51.836Z,11.50
2022-12-14T08:39:20.361Z,12.57
2022-12-14T08:41:48.763Z,11.73
2022-12-14T08:44:18.786Z,17.87
2022-12-14T08:46:47.635Z,14.10
2022-12-14T08:49:16.242Z,11.20
2022-12-14T08:51:44.601Z,10.93
2022-12-14T08:54:14.314Z,12.03
2022-12-14T08:56:42.705Z,12.07
2022-12-14T08:59:24.705Z,12.83
2022-12-14T09:02:00.023Z,13.57
2022-12-14T09:04:28.696Z,13.43
2022-12-14T09:06:57.564Z,12.30
2022-12-14T09:09:27.410Z,16.43
2022-12-14T09:11:55.832Z,12.47
2022-12-14T09:14:24.188Z,11.93
2022-12-14T09:16:52.780Z,13.93
2022-12-14T09:19:21.112Z,12.23
2022-12-14T09:21:49.680Z,15.47
2022-12-14T09:24:20.096Z,14.13
2022-12-14T09:26:49.895Z,12.73
2022-12-14T09:29:20.503Z,22.00
2022-12-14T09:31:48.902Z,21.17
2022-12-14T09:34:17.356Z,13.70
2022-12-14T09:36:46.015Z,14.83
2022-12-14T09:39:15.113Z,11.80
2022-12-14T09:42:00.995Z,11.47
2022-12-14T09:44:43.934Z,13.17
2022-12-14T09:47:16.767Z,11.57
2022-12-14T09:49:50.388Z,12.20
2022-12-14T09:52:21.915Z,10.47
2022-12-14T09:54:52.399Z,12.00
2022-12-14T09:57:29.249Z,12.23
2022-12-14T09:59:58.111Z,11.73
2022-12-14T10:02:41.617Z,11.33
2022-12-14T10:05:25.471Z,15.60
2022-12-14T10:08:04.689Z,11.27
2022-12-14T10:10:41.771Z,12.17
2022-12-14T10:13:21.999Z,11.77
2022-12-14T10:15:58.738Z,11.10
2022-12-14T10:19:01.094Z,11.10
2022-12-14T10:21:49.821Z,10.50
2022-12-14T10:24:22.939Z,11.93
2022-12-14T10:26:53.138Z,10.97
2022-12-14T10:29:36.662Z,11.90
2022-12-14T10:32:17.164Z,11.73
2022-12-14T10:34:45.838Z,14.53
2022-12-14T10:37:26.024Z,12.03
2022-12-14T10:40:28.884Z,10.87
2022-12-14T10:43:15.708Z,11.60
2022-12-14T10:45:52.926Z,10.30
2022-12-14T10:48:40.855Z,11.30
2022-12-14T10:51:15.377Z,10.80
2022-12-14T10:53:48.868Z,10.57
2022-12-14T10:56:23.235Z,11.10
2022-12-14T10:59:26.763Z,11.07
2022-12-14T11:02:03.629Z,10.03
2022-12-14T11:04:35.176Z,10.03
2022-12-14T11:07:06.715Z,11.47
2022-12-14T11:09:35.585Z,10.60
2022-12-14T11:12:07.638Z,11.37
2022-12-14T11:14:37.818Z,11.40
2022-12-14T11:17:31.627Z,10.60
2022-12-14T11:20:15.833Z,11.37
2022-12-14T11:22:46.801Z,11.53
2022-12-14T11:25:29.558Z,10.77
2022-12-14T11:27:59.267Z,9.90
2022-12-14T11:30:30.041Z,9.97
2022-12-14T11:32:59.910Z,10.60
2022-12-14T11:35:28.342Z,9.73
2022-12-14T11:38:00.662Z,10.10
2022-12-14T11:40:29.173Z,11.90
2022-12-14T11:43:03.744Z,13.10
2022-12-14T11:45:34.652Z,12.37
2022-12-14T11:48:20.569Z,10.90
2022-12-14T11:50:50.818Z,10.00
2022-12-14T11:53:21.492Z,9.33
2022-12-14T11:55:56.872Z,10.37
2022-12-14T11:58:30.044Z,10.47
2022-12-14T12:01:03.335Z,9.73
2022-12-14T12:03:37.414Z,11.23
2022-12-14T12:06:22.537Z,11.57
2022-12-14T12:12:12.605Z,11.83
2022-12-14T12:14:41.155Z,10.87
2022-12-14T12:17:20.057Z,11.50
2022-12-14T12:19:52.374Z,12.20
2022-12-14T12:22:22.076Z,11.77
2022-12-14T12:25:24.177Z,12.00
2022-12-14T12:27:55.279Z,11.13
2022-12-14T12:30:28.585Z,12.00
2022-12-14T12:33:03.905Z,10.93
2022-12-14T12:35:39.098Z,10.70
2022-12-14T12:38:13.501Z,10.70
2022-12-14T12:40:53.192Z,11.37
2022-12-14T12:43:27.072Z,10.90
2022-12-14T12:45:59.421Z,11.87
2022-12-14T12:48:33.488Z,12.73
2022-12-14T12:51:08.270Z,11.43
2022-12-14T12:53:43.881Z,11.83
2022-12-14T12:56:15.692Z,12.50
2022-12-14T12:58:52.408Z,11.90
2022-12-14T13:01:27.241Z,11.13
2022-12-14T13:03:59.357Z,11.00
2022-12-14T13:06:32.874Z,11.80
2022-12-14T13:09:07.323Z,12.33
2022-12-14T13:11:40.625Z,11.90
2022-12-14T13:14:19.196Z,11.00
2022-12-14T13:16:48.642Z,11.93
2022-12-14T13:19:49.254Z,13.93
2022-12-14T13:22:16.474Z,12.97
2022-12-14T13:24:51.800Z,12.10
2022-12-14T13:27:40.666Z,12.47
2022-12-14T13:30:31.081Z,11.07
2022-12-14T13:33:20.637Z,9.97
2022-12-14T13:36:18.357Z,8.00
2022-12-14T13:39:08.177Z,4.67
2022-12-14T13:41:43.934Z,3.03
2022-12-14T13:44:34.757Z,3.87
2022-12-14T13:47:21.779Z,3.67
2022-12-14T13:50:34.283Z,2.90
2022-12-14T13:52:47.940Z,3.30
2022-12-14T13:55:31.232Z,3.60
2022-12-14T13:58:11.030Z,4.00
2022-12-14T14:00:55.105Z,5.30
2022-12-14T14:03:46.751Z,6.67
2022-12-14T14:06:36.858Z,4.27
2022-12-14T14:09:38.701Z,4.37
2022-12-14T14:12:31.939Z,2.43
2022-12-14T14:15:17.921Z,2.27
2022-12-14T14:17:53.261Z,2.30
2022-12-14T14:20:43.031Z,1.87
2022-12-14T14:23:47.654Z,2.40
2022-12-14T14:26:27.336Z,3.63
2022-12-14T14:29:27.674Z,6.47
2022-12-14T14:32:01.146Z,4.97
2022-12-14T14:34:46.157Z,4.40
2022-12-14T14:37:31.406Z,4.53
2022-12-14T14:40:21.662Z,5.43
2022-12-14T14:43:00.368Z,5.47
2022-12-14T14:45:35.728Z,6.80
2022-12-14T14:48:11.791Z,7.73
2022-12-14T14:50:43.480Z,7.83
2022-12-14T14:53:28.959Z,8.70
2022-12-14T14:56:35.548Z,7.97
2022-12-14T14:59:43.276Z,9.73
2022-12-14T15:02:33.160Z,10.13
2022-12-14T15:05:33.365Z,9.47
2022-12-14T15:07:51.847Z,9.63
2022-12-14T15:10:29.555Z,10.23
2022-12-14T15:13:02.583Z,10.80
2022-12-14T15:15:37.205Z,10.07
2022-12-14T15:18:23.258Z,10.50
2022-12-14T15:20:57.511Z,10.13
2022-12-14T15:23:28.081Z,9.90
2022-12-14T15:25:58.965Z,10.83
2022-12-14T15:28:28.101Z,10.90
2022-12-14T15:30:58.605Z,10.70
2022-12-14T15:33:34.361Z,10.87
2022-12-14T15:36:08.214Z,11.43
2022-12-14T15:38:38.180Z,10.63
2022-12-14T15:41:13.984Z,12.93
2022-12-14T15:43:44.723Z,12.43
2022-12-14T15:46:17.348Z,12.03
2022-12-14T15:48:47.269Z,11.00
2022-12-14T15:51:19.480Z,11.93
2022-12-14T15:53:50.893Z,12.23
2022-12-14T15:56:27.786Z,12.87
2022-12-14T15:58:58.560Z,12.23
2022-12-14T16:01:31.701Z,13.93
2022-12-14T16:04:05.608Z,13.60
2022-12-14T16:06:39.274Z,13.37
2022-12-14T16:09:17.000Z,16.97
2022-12-14T16:11:49.591Z,15.97
2022-12-14T16:14:24.286Z,15.03
2022-12-14T16:16:53.157Z,14.17
2022-12-14T16:19:28.757Z,13.07
2022-12-14T16:22:12.120Z,12.70
2022-12-14T16:24:58.086Z,12.17
2022-12-14T16:27:28.802Z,12.60
2022-12-14T16:30:19.173Z,17.57
2022-12-14T16:32:50.416Z,14.63
2022-12-14T16:35:22.935Z,12.17
2022-12-14T16:37:53.808Z,12.40
2022-12-14T16:40:35.043Z,12.10
2022-12-14T16:43:05.313Z,11.57
2022-12-14T16:46:10.413Z,13.43
2022-12-14T16:48:42.113Z,15.60
2022-12-14T16:51:58.777Z,13.97
2022-12-14T16:54:30.243Z,15.73
2022-12-14T16:57:02.317Z,17.03
2022-12-14T16:59:42.924Z,16.60
2022-12-14T17:02:27.927Z,16.10
2022-12-14T17:04:58.398Z,17.07
2022-12-14T17:07:31.621Z,13.67
2022-12-14T17:10:00.319Z,13.03
2022-12-14T17:12:28.706Z,8.17
2022-12-14T17:14:59.955Z,7.90
2022-12-14T17:17:33.254Z,6.93
2022-12-14T17:20:02.677Z,5.93
2022-12-14T17:22:33.983Z,5.30
2022-12-14T17:25:02.668Z,4.90
2022-12-14T17:27:31.352Z,5.10
2022-12-14T17:30:02.231Z,4.63
2022-12-14T17:32:31.316Z,4.17
2022-12-14T17:35:00.398Z,4.43
2022-12-14T17:37:35.789Z,5.17
2022-12-14T17:40:07.799Z,4.63
2022-12-14T17:42:39.139Z,4.10
2022-12-14T17:45:18.222Z,4.10
2022-12-14T17:47:46.673Z,4.47
2022-12-14T17:50:16.196Z,4.63
2022-12-14T17:52:44.773Z,4.40
2022-12-14T17:55:19.426Z,4.40
2022-12-14T17:57:48.647Z,3.90
2022-12-14T18:00:36.032Z,4.20
2022-12-14T18:03:05.264Z,4.40
2022-12-14T18:05:34.417Z,3.93
2022-12-14T18:08:02.891Z,4.57
2022-12-14T18:10:32.823Z,4.77
2022-12-14T18:13:02.343Z,4.30
2022-12-14T18:15:32.720Z,5.30
2022-12-14T18:18:01.125Z,5.47
2022-12-14T18:20:29.565Z,4.50
2022-12-14T18:22:58.109Z,4.33
2022-12-14T18:25:31.692Z,5.53
2022-12-14T18:28:03.189Z,4.70
2022-12-14T18:30:38.847Z,8.73
2022-12-14T18:33:14.540Z,4.90
2022-12-14T18:35:43.815Z,4.50
2022-12-14T18:38:12.200Z,26.43
2022-12-14T18:40:41.900Z,5.20
2022-12-14T18:43:18.019Z,7.70
2022-12-14T18:45:46.401Z,5.17
2022-12-14T18:48:15.404Z,5.57
2022-12-14T18:50:43.941Z,5.33
2022-12-14T18:53:15.200Z,7.20
2022-12-14T18:55:44.619Z,6.83
2022-12-14T18:58:18.119Z,6.87
2022-12-14T19:00:47.350Z,14.10
2022-12-14T19:03:16.248Z,43.73
2022-12-14T19:05:45.765Z,17.00
2022-12-14T19:08:14.712Z,11.20
2022-12-14T19:10:46.080Z,10.73
2022-12-14T19:13:25.091Z,10.60
2022-12-14T19:15:54.864Z,10.70
2022-12-14T19:18:23.281Z,11.20
2022-12-14T19:20:51.633Z,11.70
2022-12-14T19:23:20.503Z,11.27
2022-12-14T19:25:49.031Z,10.70
2022-12-14T19:28:34.079Z,9.77
2022-12-14T19:31:03.191Z,9.83
2022-12-14T19:33:32.351Z,9.30
2022-12-14T19:36:01.353Z,8.47
2022-12-14T19:38:29.968Z,8.03
2022-12-14T19:41:01.239Z,9.00
2022-12-14T19:43:31.817Z,7.93
2022-12-14T19:46:00.505Z,4.23
2022-12-14T19:48:28.892Z,4.30
2022-12-14T19:50:57.277Z,4.27
2022-12-14T19:53:25.654Z,5.53
2022-12-14T19:55:54.085Z,7.23
2022-12-14T19:58:24.968Z,6.47
2022-12-14T20:00:54.863Z,5.70
2022-12-14T20:03:23.966Z,6.53
2022-12-14T20:05:54.041Z,6.20
2022-12-14T20:08:22.779Z,7.00
2022-12-14T20:10:52.723Z,10.53
2022-12-14T20:13:21.436Z,15.47
2022-12-14T20:15:50.872Z,22.07
2022-12-14T20:18:21.582Z,7.90
2022-12-14T20:20:50.576Z,5.53
2022-12-14T20:23:19.315Z,5.83
2022-12-14T20:25:47.696Z,4.60
2022-12-14T20:28:16.220Z,4.60
2022-12-14T20:30:45.545Z,7.23
2022-12-14T20:33:14.553Z,7.03
2022-12-14T20:35:44.292Z,5.13
2022-12-14T20:38:12.941Z,7.00
2022-12-14T20:40:41.298Z,6.03
2022-12-14T20:43:09.668Z,6.33
2022-12-14T20:45:39.327Z,5.77
2022-12-14T20:48:08.721Z,5.67
2022-12-14T20:50:37.851Z,7.03
2022-12-14T20:53:07.927Z,6.43
2022-12-14T20:55:36.638Z,7.57
2022-12-14T20:58:05.068Z,7.23
2022-12-14T21:00:33.452Z,7.07
2022-12-14T21:03:01.957Z,7.13
2022-12-14T21:05:30.569Z,24.03
2022-12-14T21:07:58.980Z,11.47
2022-12-14T21:10:28.818Z,9.97
2022-12-14T21:12:56.297Z,8.27
2022-12-14T21:15:24.699Z,8.30
2022-12-14T21:17:59.473Z,7.83
2022-12-14T21:20:27.862Z,7.57
2022-12-14T21:22:56.234Z,7.53
2022-12-14T21:25:24.627Z,8.20
2022-12-14T21:27:54.378Z,8.00
2022-12-14T21:30:22.742Z,8.30
2022-12-14T21:32:51.106Z,8.90
2022-12-14T21:35:19.568Z,8.53
2022-12-14T21:37:48.135Z,8.20
2022-12-14T21:40:36.588Z,8.10
2022-12-14T21:43:05.423Z,7.80
2022-12-14T21:45:34.687Z,7.60
2022-12-14T21:48:03.108Z,7.97
2022-12-14T21:50:31.464Z,11.77
2022-12-14T21:52:59.868Z,10.80
2022-12-14T21:55:28.376Z,8.27
2022-12-14T21:58:14.315Z,9.27
2022-12-14T22:00:45.168Z,9.77
2022-12-14T22:03:13.939Z,7.97
2022-12-14T22:05:42.367Z,10.00
2022-12-14T22:08:10.733Z,10.70
2022-12-14T22:10:39.181Z,10.37
2022-12-14T22:13:07.505Z,10.13
2022-12-14T22:15:36.834Z,9.57
2022-12-14T22:18:06.843Z,9.43
2022-12-14T22:20:35.747Z,10.60
2022-12-14T22:23:04.160Z,11.13
2022-12-14T22:25:32.581Z,10.03
2022-12-14T22:28:00.910Z,9.40
2022-12-14T22:30:31.914Z,10.30
2022-12-14T22:33:00.534Z,18.80
2022-12-14T22:35:30.349Z,16.17
2022-12-14T22:38:00.033Z,12.23
2022-12-14T22:40:28.404Z,11.17
2022-12-14T22:42:57.172Z,10.47
2022-12-14T22:45:26.660Z,10.17
2022-12-14T22:47:55.183Z,9.80
2022-12-14T22:50:23.550Z,10.00
2022-12-14T22:52:53.238Z,9.93
2022-12-14T22:55:22.312Z,9.53
2022-12-14T22:57:50.919Z,8.57
2022-12-14T23:00:19.255Z,8.10
2022-12-14T23:02:49.006Z,8.40
2022-12-14T23:05:18.308Z,7.70
2022-12-14T23:07:47.431Z,7.57
2022-12-14T23:10:35.012Z,6.53
2022-12-14T23:13:20.987Z,6.23
2022-12-14T23:16:06.967Z,6.70
2022-12-14T23:18:53.251Z,7.23
2022-12-14T23:21:39.774Z,9.60
2022-12-14T23:24:26.233Z,7.17
2022-12-14T23:27:13.458Z,6.50
2022-12-14T23:29:59.343Z,6.87
2022-12-14T23:32:45.309Z,7.47
2022-12-14T23:35:31.348Z,7.90
2022-12-14T23:38:22.685Z,7.40
2022-12-14T23:41:08.790Z,6.93
2022-12-14T23:43:55.798Z,7.40
2022-12-14T23:46:41.709Z,6.80
2022-12-14T23:49:27.761Z,7.50
2022-12-14T23:52:13.624Z,8.00
2022-12-14T23:54:59.783Z,8.03
2022-12-14T23:57:45.712Z,7.47
